createdAt,value
2023-01-20T00:03:14.115Z,75.76
2023-01-20T00:08:15.412Z,75.80
2023-01-20T00:13:16.718Z,76.48
2023-01-20T00:18:18.025Z,75.91
2023-01-20T00:23:19.338Z,75.48
2023-01-20T00:28:20.661Z,76.34
2023-01-20T00:33:21.965Z,76.23
2023-01-20T00:38:23.305Z,76.00
2023-01-20T00:43:25.068Z,76.00
2023-01-20T00:48:26.404Z,76.10
2023-01-20T00:53:27.789Z,76.35
2023-01-20T00:58:29.229Z,75.47
2023-01-20T01:03:30.602Z,75.42
2023-01-20T01:08:32.875Z,75.36
2023-01-20T01:13:34.622Z,75.22
2023-01-20T01:18:35.930Z,75.72
2023-01-20T01:23:37.319Z,75.15
2023-01-20T01:28:39.751Z,75.73
2023-01-20T01:33:41.203Z,75.51
2023-01-20T01:38:43.084Z,75.33
2023-01-20T01:44:03.747Z,74.92
2023-01-20T01:49:11.076Z,75.40
2023-01-20T01:54:16.947Z,75.03
2023-01-20T01:59:18.902Z,75.41
2023-01-20T02:04:23.175Z,74.71
2023-01-20T02:09:26.846Z,75.49
2023-01-20T02:14:34.264Z,75.96
2023-01-20T02:19:35.551Z,76.33
2023-01-20T02:25:00.127Z,75.14
2023-01-20T02:30:26.405Z,75.51
2023-01-20T02:35:36.932Z,74.96
2023-01-20T02:41:07.082Z,75.43
2023-01-20T02:46:14.226Z,75.25
2023-01-20T02:51:25.557Z,75.31
2023-01-20T02:56:29.114Z,75.62
2023-01-20T03:01:36.242Z,75.60
2023-01-20T03:06:43.782Z,75.63
2023-01-20T03:11:53.652Z,75.09
2023-01-20T03:16:55.203Z,74.93
2023-01-20T03:21:57.343Z,75.33
2023-01-20T03:26:59.424Z,75.69
2023-01-20T03:32:03.319Z,75.46
2023-01-20T03:37:05.440Z,75.44
2023-01-20T03:42:13.879Z,75.36
2023-01-20T03:47:33.409Z,75.71
2023-01-20T03:52:47.126Z,75.61
2023-01-20T03:58:04.645Z,75.14
2023-01-20T04:03:12.734Z,75.61
2023-01-20T04:08:17.481Z,75.78
2023-01-20T04:13:18.845Z,75.69
2023-01-20T04:18:23.034Z,75.60
2023-01-20T04:23:30.955Z,75.76
2023-01-20T04:28:32.488Z,76.00
2023-01-20T04:33:37.221Z,75.25
2023-01-20T04:38:38.537Z,76.27
2023-01-20T04:43:44.127Z,76.01
2023-01-20T04:48:46.252Z,75.93
2023-01-20T04:53:47.598Z,75.83
2023-01-20T04:58:49.033Z,75.59
2023-01-20T05:03:50.355Z,76.12
2023-01-20T05:08:51.952Z,75.54
2023-01-20T05:13:53.313Z,75.91
2023-01-20T05:18:54.624Z,75.49
2023-01-20T05:23:57.215Z,76.01
2023-01-20T05:28:58.590Z,75.93
2023-01-20T05:34:00.059Z,75.54
2023-01-20T05:39:01.663Z,75.59
2023-01-20T05:44:03.092Z,75.65
2023-01-20T05:49:04.445Z,75.98
2023-01-20T05:54:05.861Z,75.73
2023-01-20T05:59:07.771Z,75.89
2023-01-20T06:04:09.392Z,75.49
2023-01-20T06:09:10.969Z,75.30
2023-01-20T06:14:12.352Z,75.63
2023-01-20T06:19:13.816Z,75.56
2023-01-20T06:24:15.167Z,76.00
2023-01-20T06:29:16.617Z,75.62
2023-01-20T06:34:17.935Z,75.49
2023-01-20T06:39:19.309Z,75.77
2023-01-20T06:44:20.677Z,75.97
2023-01-20T06:49:21.982Z,75.58
2023-01-20T06:54:23.456Z,75.51
2023-01-20T06:59:24.780Z,75.53
2023-01-20T07:04:26.165Z,75.51
2023-01-20T07:09:27.524Z,75.50
2023-01-20T07:14:28.848Z,75.49
2023-01-20T07:19:30.183Z,75.25
2023-01-20T07:24:31.619Z,74.70
2023-01-20T07:29:32.962Z,75.28
2023-01-20T07:34:34.262Z,75.55
2023-01-20T07:39:36.373Z,75.09
2023-01-20T07:44:37.676Z,74.85
2023-01-20T07:49:39.008Z,75.01
2023-01-20T07:54:40.389Z,74.85
2023-01-20T07:59:41.725Z,75.27
2023-01-20T08:04:43.189Z,74.95
2023-01-20T08:09:44.590Z,75.08
2023-01-20T08:14:45.918Z,74.61
2023-01-20T08:19:47.325Z,75.36
2023-01-20T08:24:48.657Z,75.43
2023-01-20T08:29:49.978Z,74.90
2023-01-20T08:34:51.294Z,75.28
2023-01-20T08:39:52.661Z,75.55
2023-01-20T08:44:54.062Z,75.49
2023-01-20T08:49:55.443Z,75.09
2023-01-20T08:54:58.652Z,74.93
2023-01-20T09:00:00.039Z,75.30
2023-01-20T09:05:01.430Z,75.16
2023-01-20T09:10:04.347Z,74.69
2023-01-20T09:15:07.501Z,75.14
2023-01-20T09:20:09.844Z,74.88
2023-01-20T09:25:11.406Z,75.12
2023-01-20T09:30:13.053Z,75.28
2023-01-20T09:35:14.929Z,74.89
2023-01-20T09:40:42.723Z,75.18
2023-01-20T09:45:56.735Z,75.18
2023-01-20T09:51:22.120Z,75.36
2023-01-20T09:56:27.561Z,75.36
2023-01-20T10:01:52.758Z,75.28
2023-01-20T10:07:33.391Z,74.89
2023-01-20T10:12:42.660Z,74.67
2023-01-20T10:18:13.981Z,75.09
2023-01-20T10:23:21.555Z,75.14
2023-01-20T10:28:32.165Z,75.01
2023-01-20T10:33:45.313Z,74.82
2023-01-20T10:38:54.179Z,74.98
2023-01-20T10:43:57.752Z,74.72
2023-01-20T10:49:31.845Z,74.42
2023-01-20T10:54:46.184Z,73.79
2023-01-20T10:59:55.525Z,74.23
2023-01-20T11:05:23.994Z,73.43
2023-01-20T11:10:29.997Z,73.58
2023-01-20T11:15:35.419Z,73.51
2023-01-20T11:20:37.104Z,73.61
2023-01-20T11:25:39.188Z,72.85
2023-01-20T11:30:40.708Z,73.06
2023-01-20T11:36:07.246Z,72.99
2023-01-20T11:41:20.947Z,72.79
2023-01-20T11:46:29.942Z,73.07
2023-01-20T11:51:31.412Z,72.38
2023-01-20T11:56:41.448Z,72.78
2023-01-20T12:01:51.723Z,72.64
2023-01-20T12:07:03.444Z,72.45
2023-01-20T12:12:10.341Z,71.85
2023-01-20T12:17:17.356Z,71.81
2023-01-20T12:22:26.187Z,71.77
2023-01-20T12:27:28.158Z,72.26
2023-01-20T12:32:31.467Z,71.76
2023-01-20T12:37:47.083Z,71.23
2023-01-20T12:43:16.268Z,72.08
2023-01-20T12:48:49.916Z,72.13
2023-01-20T12:54:10.055Z,71.51
2023-01-20T12:59:39.606Z,72.06
2023-01-20T13:05:04.749Z,71.77
2023-01-20T13:10:25.700Z,71.62
2023-01-20T13:15:34.355Z,71.49
2023-01-20T13:20:40.497Z,71.63
2023-01-20T13:25:46.852Z,71.83
2023-01-20T13:30:54.207Z,71.70
2023-01-20T13:35:56.603Z,71.75
2023-01-20T13:41:06.113Z,71.80
2023-01-20T13:46:15.111Z,71.72
2023-01-20T13:51:19.180Z,71.26
2023-01-20T13:56:26.234Z,71.64
2023-01-20T14:01:28.472Z,71.22
2023-01-20T14:06:30.373Z,71.03
2023-01-20T14:11:31.829Z,71.18
2023-01-20T14:16:36.235Z,70.78
2023-01-20T14:21:41.706Z,71.15
2023-01-20T14:26:43.032Z,71.34
2023-01-20T14:31:46.160Z,70.96
2023-01-20T14:36:47.920Z,71.19
2023-01-20T14:41:54.868Z,71.45
2023-01-20T14:47:01.350Z,71.64
2023-01-20T14:52:04.355Z,71.62
2023-01-20T14:57:40.899Z,71.71
2023-01-20T15:03:11.022Z,72.00
2023-01-20T15:08:26.005Z,71.52
2023-01-20T15:13:29.733Z,71.22
2023-01-20T15:18:31.156Z,71.73
2023-01-20T15:23:38.838Z,71.43
2023-01-20T15:28:44.386Z,71.52
2023-01-20T15:33:45.735Z,71.29
2023-01-20T15:38:47.333Z,72.18
2023-01-20T15:43:51.102Z,71.36
2023-01-20T15:48:52.449Z,72.00
2023-01-20T15:53:53.837Z,71.87
2023-01-20T15:58:56.055Z,71.13
2023-01-20T16:03:58.417Z,71.58
2023-01-20T16:09:12.663Z,71.67
2023-01-20T16:14:14.059Z,71.71
2023-01-20T16:19:15.978Z,71.34
2023-01-20T16:24:17.297Z,71.98
2023-01-20T16:29:18.674Z,71.81
2023-01-20T16:34:20.037Z,71.80
2023-01-20T16:39:21.350Z,71.92
2023-01-20T16:44:22.659Z,72.23
2023-01-20T16:49:23.998Z,72.10
2023-01-20T16:54:25.378Z,72.19
2023-01-20T16:59:26.697Z,71.90
2023-01-20T17:04:29.358Z,72.30
2023-01-20T17:09:30.671Z,72.20
2023-01-20T17:14:32.173Z,72.11
2023-01-20T17:19:33.553Z,72.63
2023-01-20T17:24:35.020Z,72.36
2023-01-20T17:29:36.677Z,73.01
2023-01-20T17:34:37.995Z,72.56
2023-01-20T17:39:39.450Z,72.84
2023-01-20T17:44:40.769Z,72.56
2023-01-20T17:49:42.145Z,72.85
2023-01-20T17:54:43.484Z,72.41
2023-01-20T17:59:44.828Z,72.68
2023-01-20T18:04:46.234Z,73.23
2023-01-20T18:09:47.542Z,72.86
2023-01-20T18:14:48.856Z,73.19
2023-01-20T18:19:50.472Z,73.47
2023-01-20T18:24:51.901Z,73.51
2023-01-20T18:29:53.235Z,73.10
2023-01-20T18:34:54.703Z,73.88
2023-01-20T18:39:56.103Z,73.61
2023-01-20T18:44:57.425Z,73.74
2023-01-20T18:49:58.734Z,73.72
2023-01-20T18:55:00.123Z,73.99
2023-01-20T19:00:01.602Z,74.03
2023-01-20T19:05:03.053Z,74.05
2023-01-20T19:10:04.693Z,74.42
2023-01-20T19:15:06.690Z,74.75
2023-01-20T19:20:09.182Z,74.69
2023-01-20T19:25:10.844Z,74.57
2023-01-20T19:30:12.979Z,74.57
2023-01-20T19:35:14.331Z,74.82
2023-01-20T19:40:16.452Z,75.20
2023-01-20T19:45:18.521Z,74.94
2023-01-20T19:50:19.875Z,75.20
2023-01-20T19:55:21.210Z,74.98
2023-01-20T20:00:22.675Z,74.84
2023-01-20T20:05:24.012Z,75.13
2023-01-20T20:10:25.343Z,75.22
2023-01-20T20:15:26.763Z,75.23
2023-01-20T20:20:28.097Z,75.28
2023-01-20T20:25:29.461Z,75.45
2023-01-20T20:30:30.869Z,75.12
2023-01-20T20:35:35.403Z,75.53
2023-01-20T20:40:36.708Z,75.19
2023-01-20T20:45:38.157Z,75.26
2023-01-20T20:50:39.464Z,75.10
2023-01-20T20:55:41.887Z,75.31
2023-01-20T21:00:43.240Z,75.49
2023-01-20T21:05:48.847Z,75.75
2023-01-20T21:10:50.546Z,75.15
2023-01-20T21:15:56.432Z,75.51
2023-01-20T21:20:59.961Z,75.59
2023-01-20T21:26:02.967Z,75.94
2023-01-20T21:31:12.816Z,76.06
2023-01-20T21:36:14.699Z,75.88
2023-01-20T21:41:17.151Z,76.04
2023-01-20T21:46:19.077Z,75.97
2023-01-20T21:51:46.305Z,76.06
2023-01-20T21:56:48.449Z,76.67
2023-01-20T22:01:50.039Z,76.62
2023-01-20T22:06:51.382Z,76.49
2023-01-20T22:11:52.712Z,76.69
2023-01-20T22:16:54.097Z,76.54
2023-01-20T22:21:56.762Z,76.77
2023-01-20T22:26:58.242Z,77.21
2023-01-20T22:32:02.246Z,77.37
2023-01-20T22:37:03.602Z,76.92
2023-01-20T22:42:05.101Z,77.15
2023-01-20T22:47:09.666Z,77.32
2023-01-20T22:52:10.983Z,77.30
2023-01-20T22:57:13.022Z,77.25
2023-01-20T23:02:14.522Z,77.53
2023-01-20T23:07:15.850Z,77.45
2023-01-20T23:12:17.224Z,77.47
2023-01-20T23:17:18.541Z,77.71
2023-01-20T23:22:20.413Z,77.68
2023-01-20T23:27:21.796Z,77.41
2023-01-20T23:32:23.844Z,77.70
2023-01-20T23:37:25.178Z,77.65
2023-01-20T23:42:26.535Z,77.71
2023-01-20T23:47:27.887Z,77.82
2023-01-20T23:52:29.302Z,77.77
2023-01-20T23:57:30.636Z,77.65
